WetterOnline ( https://www.wetteronline.ch )

Wetter aktuell Regensburg

Aktuelles Wetter: Regensburg/Oberhub (371m)

6-stündlich | Neueste Meldungen
Ortszeit Temperatur Wetter
So, 25.08. 20:00 24.6° C leicht bewölkt
So, 25.08. 14:00 27.6° C wolkenlos
So, 25.08. 8:00 17.3° C wolkenlos
So, 25.08. 2:00 18.7° C wolkenlos
Sa, 24.08. 20:00 25.6° C wolkig
Sa, 24.08. 14:00 27.2° C -
Sa, 24.08. 8:00 16.1° C -
Sa, 24.08. 2:00 17.3° C bewölkt
Ortszeit Temperatur Wetter
So, 25.08. 22:10 21.0° C bewölkt
So, 25.08. 22:00 21.8° C wolkenlos
So, 25.08. 21:50 21.8° C wolkig
So, 25.08. 21:40 22.0° C wolkig
So, 25.08. 21:30 22.0° C bewölkt
So, 25.08. 21:20 22.0° C bewölkt
So, 25.08. 21:00 22.7° C leicht bewölkt
So, 25.08. 20:30 23.3° C wolkig
So, 25.08. 20:00 24.6° C leicht bewölkt
So, 25.08. 19:30 25.2° C leicht bewölkt
So, 25.08. 19:00 26.2° C wolkig
Ortszeit Relative Feuchte Sichtweite
So, 25.08. 20:00 63% 35 km
So, 25.08. 14:00 53% 35 km
So, 25.08. 8:00 99% 6 km
So, 25.08. 2:00 95% 12 km
Sa, 24.08. 20:00 62% 40 km
Sa, 24.08. 14:00 50% 35 km
Sa, 24.08. 8:00 84% 40 km
Sa, 24.08. 2:00 79% 45 km
Ortszeit Relative Feuchte Sichtweite
So, 25.08. 22:10 83% -
So, 25.08. 22:00 79% 35 km
So, 25.08. 21:50 79% -
So, 25.08. 21:40 79% -
So, 25.08. 21:30 79% 30 km
So, 25.08. 21:20 79% -
So, 25.08. 21:00 75% 35 km
So, 25.08. 20:30 70% 40 km
So, 25.08. 20:00 63% 35 km
So, 25.08. 19:30 59% 45 km
So, 25.08. 19:00 58% 50 km
Ortszeit Niederschlagsmenge Niederschlagsart
So, 25.08. 20:00 0.0 l/m2 in 12 Std. -
So, 25.08. 14:00 0.0 l/m2 in 6 Std. -
So, 25.08. 8:00 0.0 l/m2 in 12 Std. -
So, 25.08. 2:00 0.0 l/m2 in 6 Std. -
Sa, 24.08. 20:00 0.0 l/m2 in 12 Std. -
Sa, 24.08. 14:00 0.0 l/m2 in 6 Std. -
Sa, 24.08. 8:00 0.0 l/m2 in 12 Std. -
Sa, 24.08. 2:00 0.0 l/m2 in 6 Std. -
Ortszeit Niederschlagsmenge Niederschlagsart
So, 25.08. 22:10 keine Meldung -
So, 25.08. 22:00 0.0 l/m2 in 1 Std. -
So, 25.08. 21:50 keine Meldung -
So, 25.08. 21:40 keine Meldung -
So, 25.08. 21:30 0.0 l/m2 in 1 Std. -
So, 25.08. 21:20 keine Meldung -
So, 25.08. 21:00 0.0 l/m2 in 1 Std. -
So, 25.08. 20:30 0.0 l/m2 in 1 Std. -
So, 25.08. 20:00 0.0 l/m2 in 1 Std. -
So, 25.08. 19:30 0.0 l/m2 in 1 Std. -
So, 25.08. 19:00 0.0 l/m2 in 1 Std. -
Ortszeit Stärke Spitze Richtung
km/h Bft. km/h Grad Sektor
So, 25.08. 20:00 4 1 18 90° O
So, 25.08. 14:00 4 1 14 60° NO
So, 25.08. 8:00 4 1 11 350° N
So, 25.08. 2:00 7 2 11 360° N
Sa, 24.08. 20:00 6 1 20 30° NO
Sa, 24.08. 14:00 7 2 18 150° SO
Sa, 24.08. 8:00 7 2 18 340° N
Sa, 24.08. 2:00 7 2 14 350° N
Ortszeit Stärke Spitze Richtung
km/h Bft. km/h Grad Sektor
So, 25.08. 22:10 0 0 - - -
So, 25.08. 22:00 4 1 7 100° O
So, 25.08. 21:50 4 1 - - -
So, 25.08. 21:40 4 1 - - -
So, 25.08. 21:30 4 1 7 - -
So, 25.08. 21:20 4 1 - - -
So, 25.08. 21:00 4 1 7 330° NW
So, 25.08. 20:30 4 1 7 - -
So, 25.08. 20:00 4 1 18 90° O
So, 25.08. 19:30 9 2 17 - -
So, 25.08. 19:00 2 1 9 70° O
Ortszeit Untergrenze Bedeckung Gattung
total tief tief mittel hoch
So, 25.08. 20:00 1500 m - 3/8 - - -
So, 25.08. 14:00 9000 m - 0/8 - - -
So, 25.08. 8:00 9000 m - 0/8 - - -
So, 25.08. 2:00 10500 m - 0/8 - - -
Sa, 24.08. 20:00 1380 m - 6/8 - - -
Sa, 24.08. 14:00 - - - - - -
Sa, 24.08. 8:00 - - - - - -
Sa, 24.08. 2:00 1440 m - 7/8 - - -
Ortszeit Bedeckungsgrad in Achtel und Wolkenuntergrenze
So, 25.08. 22:10 4(4500m) 7(8400m) 8(9000m)
So, 25.08. 22:00 3(8400m) 8(9000m) 8(10500m)
So, 25.08. 21:50 3(8400m) 8(9000m) 8(10500m)
So, 25.08. 21:40 2(3900m) 8(9000m) 8(10500m)
So, 25.08. 21:30 4(4200m) 8(10500m) 8(10500m)
So, 25.08. 21:20 4(4200m) 8(10500m) 8(10500m)
So, 25.08. 21:00 3(1500m) 7(5700m) 7(10500m)
So, 25.08. 20:30 2(1500m) 8(10500m)
So, 25.08. 20:00 3(1500m) 5(10500m) 6(10500m)
So, 25.08. 19:30 4(1500m)
So, 25.08. 19:00 6(1500m) 6(5400m)
Ortszeit Luftdruck NN (hPa) Tendenz (hPa in 3 Std.)
So, 25.08. 20:00 1018 + 0,8
So, 25.08. 14:00 1018 - 0,6
So, 25.08. 8:00 1019 + 0,5
So, 25.08. 2:00 1018 - 0,4
Sa, 24.08. 20:00 1018 - 0,1
Sa, 24.08. 14:00 1019 - 0,9
Sa, 24.08. 8:00 1021 - 0,6
Sa, 24.08. 2:00 1022 - 1,0
Ortszeit Luftdruck NN (hPa) Tendenz (hPa in 3 Std.)
So, 25.08. 22:10 1019 keine Meldung
So, 25.08. 22:00 1019 + 1,1
So, 25.08. 21:50 1019 keine Meldung
So, 25.08. 21:40 1019 keine Meldung
So, 25.08. 21:30 1019 + 1,1
So, 25.08. 21:20 1019 keine Meldung
So, 25.08. 21:00 1018 + 1,0
So, 25.08. 20:30 1018 + 0,9
So, 25.08. 20:00 1018 + 0,8
So, 25.08. 19:30 1018 + 0,6
So, 25.08. 19:00 1017 + 0,2
Ortszeit Schneehöhe (cm)
So, 25.08. 20:00 -
So, 25.08. 14:00 -
So, 25.08. 8:00 -
So, 25.08. 2:00 -
Sa, 24.08. 20:00 -
Sa, 24.08. 14:00 -
Sa, 24.08. 8:00 -
Sa, 24.08. 2:00 -
Ortszeit Schneehöhe (cm)
So, 25.08. 22:10 -
So, 25.08. 22:00 -
So, 25.08. 21:50 -
So, 25.08. 21:40 -
So, 25.08. 21:30 -
So, 25.08. 21:20 -
So, 25.08. 21:00 -
So, 25.08. 20:30 -
So, 25.08. 20:00 -
So, 25.08. 19:30 -
So, 25.08. 19:00 -
Link zu dieser Seite / Seite empfehlen

Das Wetter in ...